Terminal Aerodrome Forecast
Issued by NWS

Current Version | Previous Version | Text Only | Print | Product List | Glossary Off
Versions: 1 2 3 4 5 6 7 8 9 10 11 12 13 14 15 16 17 18 19 20

000
FTUS41 KILN 300911 AAA
TAFLCK
TAF AMD
KLCK 300911Z 3009/3106 23003KT P6SM SCT150 BKN250
      TEMPO 3009/3011 2SM BR VV007
     FM301100 30004KT P6SM FEW070 SCT250
     FM301500 32007KT P6SM SCT040
     FM310000 35003KT P6SM SKC=

USA.gov is the U.S. government's official web portal to all federal, state and local government web resources and services.